Terminal Aerodrome Forecast
Issued by NWS Louisville, KY

Home | Current Version | Previous Version | Text Only | Print | Product List | Glossary On
Versions: 1 2 3 4 5 6 7 8 9 10 11 12 13 14 15 16 17 18 19
000
FTUS43 KLMK 212328
TAFSDF
TAF
KSDF 212328Z 2200/2306 20005KT P6SM FEW060 BKN250
     FM221700 19009KT P6SM VCSH BKN035
     FM221900 17010KT P6SM -SHRA VCTS OVC025CB
     FM222100 16009KT 5SM -SHRA VCTS BKN015CB OVC020
     FM230300 17007KT 4SM BR VCSH OVC015=

USA.gov is the U.S. government's official web portal to all federal, state and local government web resources and services.